Ride Results

Spring Mountain Challenge (22-06-2008)
Ride distance: 80.0 km

Outcomes - Spring Mountain Challenge (22-06-2008)
Division No. of Entries Retired / DNE Completed Withdrawn Ineligible V/O Percentage Completed
HW 25 - 16 4 - 5 64.00%
MW 55 - 41 2 - 12 74.55%
LW 28 - 23 2 - 3 82.14%
JN 8 - 6 - - 2 75.00%
Totals 116 - 86 8 - 22 74.14%
Results - Spring Mountain Challenge (22-06-2008)
No. Rider Horse Place Time Leg Speeds Total
Km/Hr
H/R bpm
Heavyweight
6 Ricky Petersen Ashraf Sparkling Polaris 1 (BC) 4:43:00 24.8, 11.8 16.96 33, 42, 54 (Avg:48)
79 Gerard Bou Keisha 2 4:58:00 18.0, 14.0 16.11 33, 41, 45 (Avg:43)
42 James Christensen Zeehan Zamir 2 4:58:00 15.9, 16.3 16.11 34, 45, 51 (Avg:48)
73 Paul Lengronne Deep Forest Contest 4 5:01:00 24.8, 10.7 15.95 34, 44, 53 (Avg:48)
91 Niels Lochtenberg Matta Mia Safir 5 5:10:00 14.9, 16.3 15.48 41, 43, 49 (Avg:46)
8 Anthony Caslin Timeless 6 5:27:00 14.6, 14.7 14.68 32, 47, 55 (Avg:51)
105 Michael Combe Aloha Arabian Grace 7 6:02:00 14.1, 12.2 13.26 41, 51, 56 (Avg:53)
58 Selwyn Nix Dunbar Mahadik 8 6:06:00 13.8, 12.2 13.11 30, 33, 39 (Avg:36)
99 Rod Strahan Shardell Azrark 9 6:18:00 13.2, 12.0 12.70 34, 39, 44 (Avg:41)
65 Janet Anderson Manana Zandy 10 6:26:00 13.2, 11.5 12.44 37, 49, 46 (Avg:47)
33 Greg Garred Shannonwood Sub 10 6:26:00 13.7, 10.9 12.44 33, 42, 47 (Avg:44)
9 Stephen Harris Kasban Pierre 12 6:41:00 17.9, 8.2 11.97 34, 43, 55 (Avg:49)
60 Paul Fitzgerald Merton Amadeus 13 6:42:00 13.8, 10.0 11.94 28, 43, 43 (Avg:43)
86 Marty Branigan Kholonial Amazzon 14 6:53:00 13.0, 10.0 11.62 38, 42, 49 (Avg:45)
64 Allyson Taylor Everon Park Shebell 15 7:06:00 12.1, 10.3 11.27 36, 42, 47 (Avg:44)
39 Keith Sullivan Luciana 16 7:09:02 11.6, 10.6 11.19 39, 43, 52 (Avg:47)
19 Jordan Dent Hirstglen Mack Lame L2 0:00:00 10.9, 10.2 - 32, 41, 40 (Avg:40)
10 Maurice Gray Talika Shazaf Lame L2 0:00:00 24.8, 11.8 - 41, 49, 49 (Avg:49)
90 Olaf Lochtenberg Matta Mia Ademi Lame L2 0:00:00 18.0, 75.5 - 40, 43, 50 (Avg:46)
45 Shimpei Miyamoto Roobuk Tahlara Lame L2 0:00:00 11.5, 10.6 - 31, 43, 54 (Avg:48)
88 Ivan Sampson Hilbrae Kaseno Withdrawn L2 0:00:00 - - 38, 38, 55 (Avg:46)
35 Joyce McGowan Teleman Withdrawn L1 0:00:00 - - 35, 38 (Avg:38)
57 Peter McKay Willuga Bronze Metabolics moderate L1 0:00:00 12.3 - 40, 52 (Avg:52)
11 David Grove Aloha Delphic Withdrawn P/R 0:00:00 - - 35
31 Jan Rohweder Warraba Haziel Withdrawn P/R 0:00:00 - - 38
Middleweight
1 Stephen Gray Raaward Samaya 1 (BC) 4:05:00 26.7, 14.3 19.59 58, 47, 51 (Avg:49)
25 Judy Battams Nangamba Alisaar 2 4:05:02 26.7, 14.3 19.59 48, 44, 45 (Avg:44)
108 Narelle Childs Arsley House Eryldene 3 4:40:00 24.8, 12.0 17.14 33, 41, 42 (Avg:41)
96 Joyce Corbett Reeflex 4 4:51:00 15.4, 18.2 16.49 27, 40, 48 (Avg:44)
74 Dale Hargreaves Kai Hai Sterling Aaramis 4 4:51:00 24.8, 11.3 16.49 39, 43, 46 (Avg:44)
70 Angela Head Dardanga Fingal 4 4:51:00 24.8, 11.3 16.49 33, 42, 48 (Avg:45)
72 Marion Lengronne Sasam 4 4:51:00 24.8, 11.3 16.49 31, 36, 38 (Avg:37)
69 Holly Destefani Sundust Frisco 8 5:01:00 15.9, 15.9 15.95 39, 48, 45 (Avg:46)
85 Billie Barron Shardell Sharana Golden 9 5:12:00 18.0, 12.8 15.38 35, 44, 47 (Avg:45)
13 Wayne McKinnon Dunbar Lexus 9 5:12:00 14.6, 16.5 15.38 32, 38, 42 (Avg:40)
40 Terrence Weier Crystabarbara 11 5:13:00 14.9, 15.9 15.34 39, 46, 46 (Avg:46)
121 Ashley Caslick Hazeldean Jedaa 12 5:44:00 17.8, 10.7 13.95 35, 43, 46 (Avg:44)
107 Toni Appleton Bangalay Coolatai 13 5:45:00 14.4, 13.2 13.91 40, 46, 54 (Avg:50)
18 Donna Brooker Hirstglen Sahara 14 6:05:00 13.5, 12.5 13.15 29, 40, 45 (Avg:42)
16 Vanessa Tiffen Hirstglen Texas Rose 14 6:05:00 13.5, 12.6 13.15 35, 48, 57 (Avg:52)
63 Derryn Nix Rowallan Rufous 16 6:06:00 13.8, 12.2 13.11 36, 44, 50 (Avg:47)
48 Jen Weise Matta Mia Diheb 17 6:10:00 12.3, 13.8 12.97 36, 45, 57 (Avg:51)
82 Lauren Edwards Lusitania 18 6:12:00 14.4, 11.2 12.90 34, 42, 43 (Avg:42)
123 Robyn McIntosh-Shoesmith Bangoman 19 6:17:00 13.3, 11.9 12.73 38, 39, 46 (Avg:42)
61 Gerry Bergmans Nathham Park Thammus 20 6:18:00 14.1, 11.1 12.70 42, 47, 46 (Avg:46)
100 Prutirat Serireongrith Shardell Prince Ali 20 6:18:00 13.2, 12.0 12.70 32, 41, 44 (Avg:42)
12 Sarrah Lee Fenech Dunbar Shiloh 22 6:19:00 13.4, 11.7 12.66 40, 43, 55 (Avg:49)
34 Jaime Mansbridge Shannonwood Ezar 23 6:26:00 13.7, 10.9 12.44 38, 47, 54 (Avg:50)
20 Jodie Vickery Rodborough Eclipse 23 6:26:00 13.0, 11.6 12.44 34, 38, 46 (Avg:42)
32 Emma Masters Die Kinder Lunar Eclipse 25 6:31:00 12.7, 11.6 12.28 32, 46, 44 (Avg:45)
112 Yvonne Mears Jessie 25 6:31:00 13.0, 11.3 12.28 29, 37, 46 (Avg:41)
21 Angela Koek Montville Desert Sun 27 6:51:00 95.1, 5.3 11.68 38, 45, 45 (Avg:45)
29 Louise Jackson Sabajet 28 6:52:00 12.7, 10.4 11.65 34, 38, 46 (Avg:42)
30 Natalie McIntyre Barkala Envoy 28 6:52:00 12.7, 10.4 11.65 48, 45, 53 (Avg:49)
50 Graysen Clarke Melcot Bella 30 6:53:00 12.8, 10.2 11.62 38, 36, 44 (Avg:40)
44 Mark Harris Ejay Chevage 30 6:53:00 12.8, 10.2 11.62 36, 47, 52 (Avg:49)
117 Wayne Parker Kynnum Park Shaniko 30 6:53:00 12.3, 10.7 11.62 33, 45, 55 (Avg:50)
37 Lorraine Ternouth Drumlin Mystic Moon 33 7:09:00 13.4, 9.1 11.19 36, 40, 45 (Avg:42)
47 Camille Champagne-Bargenquast Brookleigh Brogan 34 7:10:00 11.5, 10.6 11.16 33, 42, 54 (Avg:48)
2 Matthew Krahnen La Battista Shadow Fax 35 7:11:00 11.4, 10.7 11.14 36, 41, 45 (Avg:43)
7 Simone Krahnen Ardai 36 7:11:05 11.4, 10.7 11.13 43, 46, 49 (Avg:47)
23 Adrian Brickley Duray Chime The Bells 37 7:31:00 11.4, 9.7 10.64 33, 55, 49 (Avg:52)
66 Sarah Love Tee Dee 37 7:31:00 11.4, 9.6 10.64 32, 46, 49 (Avg:47)
54 Lyndell Abercrombie Lindall Aleila 39 7:56:02 10.3, 9.7 10.08 26, 36, 43 (Avg:39)
56 Janice Burt Roshar Talima 40 7:57:00 12.3, 8.0 10.06 35, 45, 53 (Avg:49)
55 Wendy Smith Midu Jacelle 40 7:57:00 12.3, 8.0 10.06 38, 42, 46 (Avg:44)
52 Sue Bugden Ondeeki Lame L2 0:00:00 11.6, 8.8 - 45, 45, 45 (Avg:45)
81 Robyn Edwards Wendell Heart Rate L2 0:00:00 14.4, 11.2 - 32, 39, 63 (Avg:51)
59 Caroline Fitzgerald Lanamere Femmara Lame L2 0:00:00 13.8, 10.0 - 40, 42, 42 (Avg:42)
71 Tarnia Kittel Karim's Pride Lame L2 0:00:00 26.7, 12.9 - 31, 39, 50 (Avg:44)
43 Donna Pearce Sahala Georgianna Lame L2 0:00:00 11.4, 10.0 - 41, 46, 59 (Avg:52)
36 Jillian Crowley Lilla Metabolics moderate L1 0:00:00 14.9 - 33, 33 (Avg:33)
27 Fiona Fenech Pilgrim Lame L1 0:00:00 14.0 - 40, 43 (Avg:43)
38 Karen Fields Jayhal Shah Lame L1 0:00:00 14.9 - 31, 42 (Avg:42)
51 Damien Keys Elfar Sword O'Fire Lame L1 0:00:00 13.3 - 42, 43 (Avg:43)
113 Ouida Ratapu Bashan Malachi Lame L1 0:00:00 13.9 - 31, 37 (Avg:37)
78 Kazushige Sakamoto Bacchante Silver Lace Lame L1 0:00:00 13.7 - 33, 48 (Avg:48)
93 Sally Summers Harry Potter Withdrawn L1 0:00:00 - - 34, 40 (Avg:40)
115 Alison Wade Jarob Shaae Lame L1 0:00:00 11.4 - 42, 47 (Avg:47)
53 Denise Kaye Die Kinder Jugoya Withdrawn P/R 0:00:00 - - 40
Lightweight
89 Emma Kirby Bremervale Bandyt 1 4:40:00 24.8, 12.0 17.14 38, 40, 44 (Avg:42)
92 Bobbi Lochtenberg Sooty Bye Royal 2 4:48:00 15.9, 17.7 16.67 38, 42, 53 (Avg:47)
97 Shay Corbett Murland Park Mikahla 3 (BC) 4:51:00 15.4, 18.2 16.49 36, 39, 40 (Avg:39)
95 Annette Chamberlain Sir Ninian 4 5:06:00 24.8, 10.4 15.69 27, 37, 41 (Avg:39)
120 Sasha Laws-King Tubbarubba Cheval 5 5:12:00 18.0, 12.8 15.38 48, 45, 48 (Avg:46)
94 Della Weier Kahshah 6 5:13:00 15.5, 14.9 15.34 28, 39, 44 (Avg:41)
26 Amaya Thomas Cedar Springs The Full Monty 7 5:24:00 14.0, 15.9 14.81 37, 41, 46 (Avg:43)
77 Fumiko Ryu Mt Eerwah Silver Mariner 8 5:25:00 14.9, 14.5 14.77 40, 40, 42 (Avg:41)
84 Aime Newton Stanpark Simone 9 5:39:00 13.2, 15.5 14.16 36, 43, 44 (Avg:43)
118 Rachel Kuns Kelkette Park Finesse 10 5:59:00 14.9, 11.7 13.37 30, 40, 46 (Avg:43)
62 Kym Dyball Anniversary Wish 11 6:12:00 13.2, 12.5 12.90 39, 43, 45 (Avg:44)
109 Renae Kuhn Bourhani Albaraq 11 6:12:00 13.7, 11.9 12.90 35, 46, 52 (Avg:49)
98 Nina Jackson Stanpark Kilara 13 6:14:00 13.7, 11.7 12.83 38, 48, 47 (Avg:47)
80 Anne Criner Alamo Harli 14 6:17:00 13.3, 11.9 12.73 40, 47, 48 (Avg:47)
17 Karen Trundell Rodborough Aneiki 15 6:26:00 13.0, 11.6 12.44 36, 44, 50 (Avg:47)
46 Saasha Grogan Rodborough Chardonnay 16 7:10:20 11.5, 10.6 11.15 45, 47, 51 (Avg:49)
114 Jackie Parsons Mercury 17 7:12:00 11.8, 10.2 11.11 36, 42, 50 (Avg:46)
116 Denise Hooker Ausden Illusion 18 7:15:00 11.4, 10.4 11.03 35, 45, 49 (Avg:47)
49 Janelle Weise Esscort's True Confessions 19 7:24:00 11.4, 10.0 10.81 34, 39, 48 (Avg:43)
24 Angela Hawks Siberia 20 7:31:00 11.4, 9.7 10.64 31, 40, 48 (Avg:44)
87 Julie Fletcher Hillbrae Bimbo 21 7:47:00 10.3, 10.1 10.28 44, 45, 52 (Avg:48)
106 Christine Ablett Lindall Falen 22 7:56:02 10.3, 9.7 10.08 29, 36, 41 (Avg:38)
14 Susan Kelman Jayhal Moonlight 23 9:13:00 10.9, 6.7 8.68 33, 40, 45 (Avg:42)
122 Leah McIntosh Turingal Park Nikolayev Heart Rate L2 0:00:00 13.3, 11.9 - 36, 45, 64 (Avg:54)
41 Christine Christie Duke Heart Rate L1 0:00:00 14.9 - 41, 73 (Avg:73)
119 Pip Lillyman Ben Ibn Raba Withdrawn L1 0:00:00 - - 34, 41 (Avg:41)
67 Amanda Powell Summit Park Raz Lame L1 0:00:00 18.0 - 31, 40 (Avg:40)
110 Robyn Brazel Thomas Withdrawn P/R 0:00:00 - - 42
Junior
75 David Anderson Jnr Tobinlee Ishmale 1 (BC) 5:01:00 18.0, 13.7 15.95 28, 40, 39 (Avg:39)
76 Ingrid Ambrosiussen Shaah 2 5:25:00 14.9, 14.5 14.77 42, 46, 44 (Avg:45)
22 Jake Gray Ashraf Sparkling Panache 3 6:31:00 12.7, 11.6 12.28 33, 47, 57 (Avg:52)
3 Erin Krahnen Shaqeil 4 7:11:02 11.4, 10.7 11.14 37, 40, 41 (Avg:40)
5 Connor Krahnen Kalkadoon Shalom 5 7:11:04 11.4, 10.7 11.14 34, 42, 47 (Avg:44)
28 Kelly Hughston Cicada Lodge Oliver Twist 6 7:24:00 19.4, 6.7 10.81 38, 44, 43 (Avg:43)
4 Colleen Krahnen Wywurri Starlight Lame L2 0:00:00 11.4, 10.7 - 33, 39, 45 (Avg:42)
83 Billie Standfield Stanpark Meg Lame L1 0:00:00 13.2 - 36, 43 (Avg:43)